createdAt,value
2022-12-08T00:01:57.734Z,39.45
2022-12-08T00:04:26.313Z,39.46
2022-12-08T00:07:13.202Z,39.53
2022-12-08T00:09:42.374Z,39.54
2022-12-08T00:12:13.466Z,39.62
2022-12-08T00:14:44.632Z,39.52
2022-12-08T00:17:15.309Z,39.60
2022-12-08T00:19:43.869Z,39.77
2022-12-08T00:22:15.562Z,39.62
2022-12-08T00:24:46.743Z,39.62
2022-12-08T00:27:15.997Z,39.56
2022-12-08T00:29:45.845Z,39.60
2022-12-08T00:32:14.083Z,39.44
2022-12-08T00:34:42.775Z,39.59
2022-12-08T00:37:10.933Z,39.56
2022-12-08T00:39:40.305Z,39.47
2022-12-08T00:42:14.608Z,38.98
2022-12-08T00:44:45.322Z,39.47
2022-12-08T00:47:14.640Z,39.49
2022-12-08T00:49:44.185Z,39.37
2022-12-08T00:52:13.244Z,39.47
2022-12-08T00:54:41.807Z,39.55
2022-12-08T00:57:10.355Z,39.74
2022-12-08T00:59:40.323Z,39.84
2022-12-08T01:02:08.412Z,39.92
2022-12-08T01:04:38.832Z,39.72
2022-12-08T01:07:07.054Z,39.86
2022-12-08T01:09:35.553Z,39.61
2022-12-08T01:12:03.797Z,39.62
2022-12-08T01:14:32.413Z,39.64
2022-12-08T01:17:00.595Z,39.83
2022-12-08T01:19:29.265Z,39.91
2022-12-08T01:21:57.554Z,39.75
2022-12-08T01:24:26.885Z,39.91
2022-12-08T01:26:55.042Z,39.77
2022-12-08T01:29:23.552Z,39.87
2022-12-08T01:31:51.722Z,39.78
2022-12-08T01:34:20.093Z,39.75
2022-12-08T01:36:48.423Z,39.90
2022-12-08T01:39:18.455Z,40.06
2022-12-08T01:41:47.952Z,39.67
2022-12-08T01:44:16.192Z,39.81
2022-12-08T01:46:46.122Z,40.33
2022-12-08T01:49:23.305Z,40.08
2022-12-08T01:52:12.272Z,40.42
2022-12-08T01:54:48.078Z,39.71
2022-12-08T01:57:24.091Z,40.06
2022-12-08T02:00:02.880Z,40.29
2022-12-08T02:03:01.032Z,40.14
2022-12-08T02:05:34.556Z,40.26
2022-12-08T02:08:07.013Z,40.24
2022-12-08T02:10:38.633Z,40.19
2022-12-08T02:13:13.346Z,40.08
2022-12-08T02:15:41.846Z,40.12
2022-12-08T02:18:28.594Z,40.21
2022-12-08T02:21:13.687Z,40.27
2022-12-08T02:23:50.780Z,40.41
2022-12-08T02:26:38.551Z,40.39
2022-12-08T02:29:27.998Z,40.36
2022-12-08T02:32:12.594Z,40.26
2022-12-08T02:34:59.762Z,40.27
2022-12-08T02:37:28.161Z,40.32
2022-12-08T02:40:04.573Z,40.37
2022-12-08T02:42:38.841Z,40.24
2022-12-08T02:45:09.569Z,40.36
2022-12-08T02:47:39.816Z,40.33
2022-12-08T02:50:08.613Z,40.26
2022-12-08T02:52:43.341Z,40.35
2022-12-08T02:55:28.531Z,40.22
2022-12-08T02:58:16.231Z,40.30
2022-12-08T03:01:09.445Z,40.24
2022-12-08T03:03:52.606Z,40.25
2022-12-08T03:06:39.616Z,40.07
2022-12-08T03:09:17.960Z,40.19
2022-12-08T03:11:57.023Z,40.02
2022-12-08T03:14:25.809Z,40.10
2022-12-08T03:16:56.289Z,40.11
2022-12-08T03:19:29.232Z,39.83
2022-12-08T03:22:03.489Z,40.01
2022-12-08T03:24:37.044Z,40.13
2022-12-08T03:27:09.290Z,40.14
2022-12-08T03:29:38.064Z,39.91
2022-12-08T03:32:13.449Z,39.86
2022-12-08T03:34:44.690Z,39.76
2022-12-08T03:37:14.020Z,39.76
2022-12-08T03:39:43.189Z,39.68
2022-12-08T03:42:11.528Z,39.58
2022-12-08T03:44:41.194Z,39.39
2022-12-08T03:47:09.410Z,39.32
2022-12-08T03:49:38.101Z,39.57
2022-12-08T03:52:06.443Z,39.56
2022-12-08T03:54:36.270Z,39.65
2022-12-08T03:57:04.551Z,39.30
2022-12-08T03:59:33.902Z,39.57
2022-12-08T04:02:02.230Z,39.41
2022-12-08T04:04:31.389Z,39.51
2022-12-08T04:06:59.651Z,39.30
2022-12-08T04:09:28.251Z,39.44
2022-12-08T04:11:56.531Z,39.35
2022-12-08T04:14:26.323Z,39.49
2022-12-08T04:16:54.549Z,39.40
2022-12-08T04:19:23.114Z,39.57
2022-12-08T04:21:52.160Z,39.44
2022-12-08T04:24:20.818Z,39.32
2022-12-08T04:26:50.269Z,39.46
2022-12-08T04:29:18.968Z,39.09
2022-12-08T04:31:47.251Z,39.37
2022-12-08T04:34:17.099Z,39.41
2022-12-08T04:36:45.380Z,39.71
2022-12-08T04:39:13.900Z,39.52
2022-12-08T04:41:42.099Z,39.30
2022-12-08T04:44:10.721Z,39.14
2022-12-08T04:46:43.116Z,39.02
2022-12-08T04:49:13.511Z,38.67
2022-12-08T04:51:42.370Z,38.34
2022-12-08T04:54:10.991Z,38.08
2022-12-08T04:56:39.241Z,37.56
2022-12-08T04:59:07.802Z,37.46
2022-12-08T05:01:36.095Z,36.82
2022-12-08T05:04:04.969Z,36.83
2022-12-08T05:06:33.213Z,36.45
2022-12-08T05:09:01.870Z,36.39
2022-12-08T05:11:30.101Z,35.99
2022-12-08T05:13:58.760Z,35.97
2022-12-08T05:16:27.037Z,35.50
2022-12-08T05:18:55.670Z,35.35
2022-12-08T05:21:24.767Z,35.88
2022-12-08T05:23:53.456Z,35.60
2022-12-08T05:26:21.619Z,35.47
2022-12-08T05:28:50.159Z,35.21
2022-12-08T05:31:18.474Z,35.22
2022-12-08T05:33:47.138Z,35.28
2022-12-08T05:36:16.470Z,35.13
2022-12-08T05:38:45.534Z,35.08
2022-12-08T05:41:15.999Z,35.07
2022-12-08T05:43:45.201Z,34.72
2022-12-08T05:46:14.409Z,34.77
2022-12-08T05:48:43.432Z,34.68
2022-12-08T05:51:22.598Z,34.58
2022-12-08T05:53:52.423Z,34.55
2022-12-08T05:56:21.453Z,34.48
2022-12-08T05:58:50.479Z,34.65
2022-12-08T06:01:32.143Z,34.79
2022-12-08T06:04:02.192Z,34.28
2022-12-08T06:06:31.005Z,34.22
2022-12-08T06:08:59.552Z,34.44
2022-12-08T06:11:29.886Z,34.25
2022-12-08T06:13:59.300Z,34.10
2022-12-08T06:16:28.278Z,34.17
2022-12-08T06:18:57.220Z,34.00
2022-12-08T06:21:25.552Z,34.21
2022-12-08T06:23:55.060Z,34.41
2022-12-08T06:26:23.829Z,34.29
2022-12-08T06:28:53.580Z,34.79
2022-12-08T06:31:26.579Z,34.45
2022-12-08T06:33:55.769Z,34.43
2022-12-08T06:36:26.374Z,34.52
2022-12-08T06:38:55.403Z,34.67
2022-12-08T06:41:24.504Z,34.81
2022-12-08T06:43:57.442Z,34.92
2022-12-08T06:46:25.832Z,34.76
2022-12-08T06:48:54.612Z,34.67
2022-12-08T06:51:25.820Z,34.83
2022-12-08T06:53:55.419Z,34.80
2022-12-08T06:56:28.279Z,34.96
2022-12-08T06:58:56.952Z,34.96
2022-12-08T07:01:26.117Z,35.02
2022-12-08T07:03:54.744Z,35.11
2022-12-08T07:06:24.549Z,34.94
2022-12-08T07:08:53.237Z,35.09
2022-12-08T07:11:22.830Z,35.40
2022-12-08T07:13:52.158Z,35.35
2022-12-08T07:16:20.447Z,35.23
2022-12-08T07:18:49.426Z,35.21
2022-12-08T07:21:18.211Z,35.26
2022-12-08T07:23:52.702Z,35.18
2022-12-08T07:26:27.402Z,35.34
2022-12-08T07:28:55.935Z,35.32
2022-12-08T07:31:25.655Z,35.24
2022-12-08T07:33:57.422Z,35.38
2022-12-08T07:36:26.201Z,35.53
2022-12-08T07:38:54.820Z,35.80
2022-12-08T07:41:24.515Z,35.95
2022-12-08T07:43:54.542Z,35.72
2022-12-08T07:46:24.491Z,35.96
2022-12-08T07:48:54.182Z,35.84
2022-12-08T07:51:22.340Z,36.29
2022-12-08T07:53:54.183Z,36.16
2022-12-08T07:56:23.354Z,36.42
2022-12-08T07:58:52.013Z,36.61
2022-12-08T08:01:26.285Z,36.64
2022-12-08T08:03:57.083Z,36.60
2022-12-08T08:06:25.430Z,36.82
2022-12-08T08:08:55.091Z,36.77
2022-12-08T08:11:23.950Z,36.97
2022-12-08T08:13:53.923Z,36.85
2022-12-08T08:16:22.137Z,36.97
2022-12-08T08:18:51.791Z,37.22
2022-12-08T08:24:09.643Z,37.23
2022-12-08T08:26:38.190Z,37.65
2022-12-08T08:29:06.722Z,37.46
2022-12-08T08:31:34.832Z,37.58
2022-12-08T08:34:06.612Z,37.82
2022-12-08T08:36:35.002Z,38.23
2022-12-08T08:39:04.835Z,38.49
2022-12-08T08:41:33.546Z,38.26
2022-12-08T08:44:02.065Z,38.03
2022-12-08T08:46:30.320Z,38.66
2022-12-08T08:48:59.022Z,38.61
2022-12-08T08:51:27.125Z,38.80
2022-12-08T08:53:55.653Z,38.87
2022-12-08T08:56:24.443Z,39.35
2022-12-08T08:58:54.414Z,39.43
2022-12-08T09:01:25.948Z,39.30
2022-12-08T09:03:55.279Z,39.73
2022-12-08T09:06:24.702Z,39.65
2022-12-08T09:08:53.208Z,40.08
2022-12-08T09:11:23.633Z,39.97
2022-12-08T09:13:54.293Z,40.75
2022-12-08T09:16:23.114Z,41.03
2022-12-08T09:18:51.840Z,41.38
2022-12-08T09:21:23.253Z,42.33
2022-12-08T09:23:56.193Z,41.64
2022-12-08T09:26:27.127Z,41.82
2022-12-08T09:28:56.676Z,43.17
2022-12-08T09:31:25.226Z,42.74
2022-12-08T09:33:54.867Z,43.39
2022-12-08T09:36:23.155Z,42.99
2022-12-08T09:38:53.926Z,42.71
2022-12-08T09:41:48.540Z,43.19
2022-12-08T09:44:42.399Z,43.14
2022-12-08T09:47:27.484Z,43.21
2022-12-08T09:50:39.688Z,43.11
2022-12-08T09:53:17.262Z,43.32
2022-12-08T09:56:06.561Z,43.62
2022-12-08T09:58:45.540Z,43.17
2022-12-08T10:01:14.350Z,43.32
2022-12-08T10:03:42.992Z,43.70
2022-12-08T10:06:36.420Z,43.36
2022-12-08T10:09:46.592Z,43.33
2022-12-08T10:12:15.096Z,43.27
2022-12-08T10:14:56.203Z,43.58
2022-12-08T10:17:28.350Z,43.41
2022-12-08T10:20:03.885Z,43.20
2022-12-08T10:22:38.681Z,43.03
2022-12-08T10:25:19.561Z,43.15
2022-12-08T10:27:53.239Z,42.84
2022-12-08T10:30:22.475Z,42.95
2022-12-08T10:32:53.350Z,42.91
2022-12-08T10:35:23.441Z,42.87
2022-12-08T10:37:57.706Z,42.60
2022-12-08T10:40:37.997Z,42.42
2022-12-08T10:43:21.252Z,42.12
2022-12-08T10:45:49.523Z,41.73
2022-12-08T10:48:27.236Z,41.40
2022-12-08T10:50:59.051Z,40.81
2022-12-08T10:53:28.862Z,40.65
2022-12-08T10:56:03.039Z,40.29
2022-12-08T10:58:36.380Z,40.25
2022-12-08T11:01:10.555Z,40.19
2022-12-08T11:03:52.908Z,39.81
2022-12-08T11:06:36.419Z,40.19
2022-12-08T11:09:25.492Z,39.76
2022-12-08T11:11:57.474Z,39.76
2022-12-08T11:14:45.131Z,39.52
2022-12-08T11:17:22.323Z,39.44
2022-12-08T11:20:08.919Z,39.13
2022-12-08T11:22:42.632Z,38.76
2022-12-08T11:25:27.244Z,39.35
2022-12-08T11:28:00.600Z,39.37
2022-12-08T11:30:38.519Z,38.73
2022-12-08T11:33:19.949Z,38.82
2022-12-08T11:36:03.191Z,38.68
2022-12-08T11:38:32.751Z,38.57
2022-12-08T11:41:07.456Z,39.03
2022-12-08T11:43:55.150Z,38.51
2022-12-08T11:46:49.603Z,38.49
2022-12-08T11:49:19.143Z,38.60
2022-12-08T11:51:57.524Z,38.10
2022-12-08T11:54:35.799Z,37.86
2022-12-08T11:57:08.252Z,37.98
2022-12-08T11:59:40.083Z,37.95
2022-12-08T12:02:27.073Z,37.76
2022-12-08T12:05:07.726Z,38.01
2022-12-08T12:08:02.114Z,37.78
2022-12-08T12:10:36.363Z,37.51
2022-12-08T12:13:23.438Z,37.80
2022-12-08T12:16:13.497Z,37.97
2022-12-08T12:19:02.920Z,38.16
2022-12-08T12:21:35.544Z,38.54
2022-12-08T12:24:11.332Z,38.45
2022-12-08T12:26:54.687Z,38.69
2022-12-08T12:29:28.376Z,39.06
2022-12-08T12:32:00.527Z,39.09
2022-12-08T12:34:34.696Z,39.19
2022-12-08T12:37:11.380Z,39.38
2022-12-08T12:39:57.731Z,39.21
2022-12-08T12:42:49.702Z,39.57
2022-12-08T12:45:18.263Z,39.51
2022-12-08T12:47:56.598Z,40.47
2022-12-08T12:50:34.522Z,40.47
2022-12-08T12:53:13.599Z,40.29
2022-12-08T12:56:00.497Z,40.33
2022-12-08T12:58:28.743Z,40.53
2022-12-08T13:01:15.492Z,40.67
2022-12-08T13:03:47.640Z,40.88
2022-12-08T13:06:38.047Z,40.79
2022-12-08T13:09:08.357Z,40.93
2022-12-08T13:11:48.054Z,40.91
2022-12-08T13:14:30.122Z,41.20
2022-12-08T13:17:00.637Z,41.33
2022-12-08T13:19:32.319Z,41.41
2022-12-08T13:22:01.563Z,41.38
2022-12-08T13:24:33.788Z,41.80
2022-12-08T13:27:05.440Z,41.58
2022-12-08T13:29:38.814Z,41.93
2022-12-08T13:32:09.395Z,41.84
2022-12-08T13:34:53.643Z,41.89
2022-12-08T13:37:54.333Z,41.88
2022-12-08T13:40:26.194Z,41.97
2022-12-08T13:43:13.843Z,42.24
2022-12-08T13:46:52.969Z,42.29
2022-12-08T13:56:16.753Z,42.64
2022-12-08T13:57:34.894Z,42.83
2022-12-08T14:00:07.946Z,42.81
2022-12-08T14:02:47.711Z,42.79
2022-12-08T14:05:30.056Z,42.64
2022-12-08T14:08:36.305Z,42.68
2022-12-08T14:11:33.833Z,43.14
2022-12-08T14:14:09.472Z,43.12
2022-12-08T14:16:41.010Z,43.24
2022-12-08T14:19:20.372Z,43.56
2022-12-08T14:21:57.041Z,43.54
2022-12-08T14:24:27.142Z,43.81
2022-12-08T14:27:01.554Z,43.84
2022-12-08T14:29:50.660Z,43.68
2022-12-08T14:32:34.963Z,43.71
2022-12-08T14:35:09.102Z,43.53
2022-12-08T14:38:12.718Z,43.87
2022-12-08T14:40:43.963Z,43.60
2022-12-08T14:43:15.183Z,43.65
2022-12-08T14:45:43.502Z,43.61
2022-12-08T14:48:38.913Z,43.50
2022-12-08T14:51:13.624Z,44.09
2022-12-08T14:53:48.139Z,44.00
2022-12-08T14:56:39.819Z,44.27
2022-12-08T14:59:13.507Z,44.30
2022-12-08T15:01:43.183Z,44.26
2022-12-08T15:04:15.194Z,44.18
2022-12-08T15:07:07.178Z,44.54
2022-12-08T15:09:47.452Z,44.72
2022-12-08T15:12:15.887Z,44.85
2022-12-08T15:14:56.523Z,44.52
2022-12-08T15:17:50.423Z,44.69
2022-12-08T15:20:45.162Z,45.11
2022-12-08T15:23:28.173Z,44.81
2022-12-08T15:25:57.892Z,44.97
2022-12-08T15:28:30.219Z,44.83
2022-12-08T15:30:59.649Z,44.84
2022-12-08T15:33:28.248Z,45.00
2022-12-08T15:35:57.965Z,45.20
2022-12-08T15:38:31.704Z,45.33
2022-12-08T15:41:00.824Z,45.58
2022-12-08T15:43:32.113Z,45.43
2022-12-08T15:46:00.732Z,45.44
2022-12-08T15:48:30.145Z,45.59
2022-12-08T15:50:59.051Z,45.74
2022-12-08T15:53:27.223Z,45.67
2022-12-08T15:56:27.091Z,45.70
2022-12-08T15:58:53.719Z,45.48
2022-12-08T16:01:24.160Z,45.32
2022-12-08T16:04:36.778Z,45.30
2022-12-08T16:09:39.004Z,45.35
2022-12-08T16:18:17.356Z,45.55
2022-12-08T16:23:42.982Z,45.53
2022-12-08T16:26:44.391Z,45.59
2022-12-08T16:29:07.038Z,45.72
2022-12-08T16:31:35.788Z,45.37
2022-12-08T16:34:04.476Z,45.08
2022-12-08T16:36:32.870Z,44.88
2022-12-08T16:39:01.443Z,44.61
2022-12-08T16:41:48.499Z,44.31
2022-12-08T16:44:18.149Z,44.07
2022-12-08T16:46:46.483Z,43.88
2022-12-08T16:49:15.827Z,44.17
2022-12-08T16:51:44.241Z,43.73
2022-12-08T16:54:12.893Z,43.58
2022-12-08T16:56:41.214Z,43.76
2022-12-08T16:59:09.847Z,43.50
2022-12-08T17:01:38.232Z,43.55
2022-12-08T17:04:30.624Z,43.35
2022-12-08T17:06:55.289Z,43.53
2022-12-08T17:09:24.741Z,43.14
2022-12-08T17:11:53.056Z,43.07
2022-12-08T17:14:22.788Z,42.61
2022-12-08T17:16:51.344Z,42.61
2022-12-08T17:19:20.139Z,42.53
2022-12-08T17:21:48.497Z,42.13
2022-12-08T17:24:21.904Z,42.24
2022-12-08T17:26:52.179Z,42.17
2022-12-08T17:29:22.368Z,41.94
2022-12-08T17:31:51.747Z,42.09
2022-12-08T17:34:21.655Z,41.69
2022-12-08T17:36:50.287Z,41.83
2022-12-08T17:39:19.489Z,41.62
2022-12-08T17:41:48.183Z,41.53
2022-12-08T17:44:19.090Z,41.30
2022-12-08T17:46:52.537Z,40.86
2022-12-08T17:49:30.483Z,40.70
2022-12-08T17:52:04.052Z,40.83
2022-12-08T17:54:34.388Z,40.74
2022-12-08T17:57:02.911Z,40.65
2022-12-08T17:59:31.860Z,40.27
2022-12-08T18:02:00.394Z,40.41
2022-12-08T18:04:29.278Z,40.27
2022-12-08T18:07:00.532Z,40.19
2022-12-08T18:09:31.319Z,40.27
2022-12-08T18:12:00.074Z,40.09
2022-12-08T18:14:29.314Z,40.25
2022-12-08T18:16:57.681Z,39.60
2022-12-08T18:19:26.607Z,39.99
2022-12-08T18:21:54.908Z,39.73
2022-12-08T18:24:24.085Z,39.88
2022-12-08T18:26:52.877Z,39.85
2022-12-08T18:29:23.968Z,39.43
2022-12-08T18:31:53.202Z,39.37
2022-12-08T18:34:22.008Z,39.30
2022-12-08T18:36:50.330Z,39.27
2022-12-08T18:39:25.742Z,39.56
2022-12-08T18:41:54.186Z,39.50
2022-12-08T18:44:24.313Z,39.96
2022-12-08T18:46:53.304Z,40.10
2022-12-08T18:49:23.279Z,40.40
2022-12-08T18:51:51.599Z,40.83
2022-12-08T18:54:22.146Z,41.01
2022-12-08T18:56:55.930Z,40.81
2022-12-08T18:59:25.528Z,41.12
2022-12-08T19:01:53.707Z,41.01
2022-12-08T19:04:29.921Z,41.49
2022-12-08T19:06:58.993Z,41.27
2022-12-08T19:09:29.177Z,41.31
2022-12-08T19:11:57.815Z,41.59
2022-12-08T19:14:28.809Z,41.90
2022-12-08T19:16:57.956Z,41.64
2022-12-08T19:19:27.596Z,41.84
2022-12-08T19:21:56.740Z,41.36
2022-12-08T19:24:25.569Z,41.45
2022-12-08T19:26:53.840Z,41.52
2022-12-08T19:29:22.408Z,41.95
2022-12-08T19:31:50.930Z,41.77
2022-12-08T19:34:19.920Z,41.95
2022-12-08T19:36:48.472Z,42.00
2022-12-08T19:39:37.938Z,42.57
2022-12-08T19:42:45.136Z,42.80
2022-12-08T19:45:17.483Z,43.06
2022-12-08T19:47:45.912Z,43.13
2022-12-08T19:50:35.833Z,43.66
2022-12-08T19:53:09.946Z,44.27
2022-12-08T19:55:38.685Z,44.49
2022-12-08T19:58:07.238Z,44.23
2022-12-08T20:00:38.615Z,44.85
2022-12-08T20:03:07.776Z,44.52
2022-12-08T20:05:37.251Z,44.80
2022-12-08T20:08:06.277Z,45.07
2022-12-08T20:10:39.168Z,45.14
2022-12-08T20:13:27.237Z,45.11
2022-12-08T20:15:57.959Z,45.22
2022-12-08T20:18:26.278Z,45.33
2022-12-08T20:20:55.097Z,44.99
2022-12-08T20:23:23.614Z,44.96
2022-12-08T20:25:52.441Z,44.59
2022-12-08T20:28:20.912Z,44.43
2022-12-08T20:30:49.532Z,44.60
2022-12-08T20:33:19.315Z,44.30
2022-12-08T20:35:48.693Z,43.92
2022-12-08T20:38:17.421Z,44.12
2022-12-08T20:40:47.720Z,43.40
2022-12-08T20:43:16.205Z,43.47
2022-12-08T20:45:44.481Z,43.85
2022-12-08T20:48:14.164Z,43.47
2022-12-08T20:50:43.172Z,43.70
2022-12-08T20:53:11.849Z,43.58
2022-12-08T20:55:43.004Z,43.78
2022-12-08T20:58:12.322Z,43.90
2022-12-08T21:00:40.759Z,43.74
2022-12-08T21:03:09.807Z,43.88
2022-12-08T21:05:39.091Z,43.90
2022-12-08T21:08:08.100Z,43.86
2022-12-08T21:10:42.199Z,43.98
2022-12-08T21:13:13.619Z,43.94
2022-12-08T21:15:46.057Z,43.94
2022-12-08T21:18:17.106Z,43.97
2022-12-08T21:20:45.513Z,43.72
2022-12-08T21:23:14.384Z,44.16
2022-12-08T21:25:44.885Z,44.01
2022-12-08T21:28:15.687Z,43.66
2022-12-08T21:30:45.938Z,43.66
2022-12-08T21:33:14.831Z,43.66
2022-12-08T21:35:44.041Z,43.36
2022-12-08T21:38:12.759Z,43.00
2022-12-08T21:40:40.988Z,43.00
2022-12-08T21:43:09.749Z,42.47
2022-12-08T21:45:38.378Z,42.36
2022-12-08T21:48:11.990Z,42.45
2022-12-08T21:50:40.831Z,42.50
2022-12-08T21:53:09.821Z,41.94
2022-12-08T21:55:39.165Z,42.15
2022-12-08T21:58:07.899Z,42.09
2022-12-08T22:00:36.360Z,41.85
2022-12-08T22:03:06.829Z,41.78
2022-12-08T22:05:36.180Z,42.15
2022-12-08T22:08:06.138Z,42.28
2022-12-08T22:10:34.972Z,42.49
2022-12-08T22:13:03.654Z,42.52
2022-12-08T22:15:33.139Z,42.23
2022-12-08T22:18:02.055Z,42.45
2022-12-08T22:20:30.498Z,42.47
2022-12-08T22:22:59.388Z,42.48
2022-12-08T22:25:28.033Z,42.75
2022-12-08T22:27:56.642Z,42.99
2022-12-08T22:30:25.136Z,42.85
2022-12-08T22:32:54.189Z,42.87
2022-12-08T22:35:22.944Z,43.13
2022-12-08T22:37:51.705Z,43.18
2022-12-08T22:40:20.162Z,43.15
2022-12-08T22:42:48.804Z,43.15
2022-12-08T22:45:17.104Z,43.50
2022-12-08T22:47:45.823Z,43.59
2022-12-08T22:50:14.156Z,43.31
2022-12-08T22:52:42.634Z,43.67
2022-12-08T22:55:10.767Z,43.61
2022-12-08T22:57:40.586Z,43.89
2022-12-08T23:00:11.952Z,43.78
2022-12-08T23:02:40.823Z,43.78
2022-12-08T23:05:09.826Z,43.82
2022-12-08T23:07:39.543Z,44.02
2022-12-08T23:10:09.622Z,44.12
2022-12-08T23:12:39.335Z,44.18
2022-12-08T23:15:08.274Z,44.12
2022-12-08T23:17:37.246Z,44.53
2022-12-08T23:20:07.100Z,44.47
2022-12-08T23:22:36.104Z,44.64
2022-12-08T23:25:05.264Z,44.53
2022-12-08T23:27:34.341Z,44.74
2022-12-08T23:30:06.016Z,44.87
2022-12-08T23:32:35.058Z,44.89
2022-12-08T23:35:04.615Z,44.82
2022-12-08T23:37:33.175Z,44.89
2022-12-08T23:40:01.502Z,44.66
2022-12-08T23:42:30.673Z,44.78
2022-12-08T23:44:59.053Z,44.98
2022-12-08T23:47:28.990Z,44.86
2022-12-08T23:49:57.736Z,45.04
2022-12-08T23:52:27.187Z,44.90
2022-12-08T23:54:56.123Z,45.17
2022-12-08T23:57:25.003Z,45.26
2022-12-08T23:59:53.517Z,45.24
